<?xml version="1.0" encoding="UTF-8" standalone="no" ?>
<gpx xmlns="http://www.topografix.com/GPX/1/1" xmlns:xsi="http://www.w3.org/2001/XMLSchema-instance" xsi:schemaLocation="http://www.topografix.com/GPX/1/1 http://www.topografix.com/GPX/1/1/gpx.xsd" version="1.1" creator="VisuGPX - https://www.visugpx.com">
  <metadata>
    <name>MARCHE D AUTOMNE 2  2024</name>
    <desc><![CDATA[FAIT]]></desc>
  </metadata>
  <trk>
    <name><![CDATA[MARCHE D AUTOMNE 2 LE  20/10/2024-20135058]]></name>
    <trkseg>
      <trkpt lat="49.13709" lon="1.9434">
        <ele>62</ele>
        <time>2025-01-19T12:36:25Z</time>
      </trkpt>
      <trkpt lat="49.13702" lon="1.94345">
        <ele>62</ele>
        <time>2025-01-19T12:36:35Z</time>
      </trkpt>
      <trkpt lat="49.13707" lon="1.94343">
        <ele>62</ele>
        <time>2025-01-19T12:36:42Z</time>
      </trkpt>
      <trkpt lat="49.13704" lon="1.94345">
        <ele>62</ele>
        <time>2025-01-19T12:36:47Z</time>
      </trkpt>
      <trkpt lat="49.137" lon="1.94339">
        <ele>62</ele>
        <time>2025-01-19T12:36:54Z</time>
      </trkpt>
      <trkpt lat="49.13696" lon="1.94318">
        <ele>61</ele>
        <time>2025-01-19T12:37:13Z</time>
      </trkpt>
      <trkpt lat="49.13701" lon="1.94341">
        <ele>62</ele>
        <time>2025-01-19T12:37:34Z</time>
      </trkpt>
      <trkpt lat="49.13709" lon="1.94346">
        <ele>62</ele>
        <time>2025-01-19T12:37:46Z</time>
      </trkpt>
      <trkpt lat="49.13695" lon="1.94338">
        <ele>61</ele>
        <time>2025-01-19T12:38:06Z</time>
      </trkpt>
      <trkpt lat="49.13685" lon="1.9431">
        <ele>60</ele>
        <time>2025-01-19T12:38:34Z</time>
      </trkpt>
      <trkpt lat="49.13666" lon="1.94291">
        <ele>59</ele>
        <time>2025-01-19T12:39:04Z</time>
      </trkpt>
      <trkpt lat="49.13661" lon="1.94271">
        <ele>59</ele>
        <time>2025-01-19T12:39:23Z</time>
      </trkpt>
      <trkpt lat="49.13646" lon="1.94245">
        <ele>58</ele>
        <time>2025-01-19T12:39:53Z</time>
      </trkpt>
      <trkpt lat="49.13598" lon="1.94195">
        <ele>58</ele>
        <time>2025-01-19T12:41:10Z</time>
      </trkpt>
      <trkpt lat="49.13544" lon="1.94059">
        <ele>66</ele>
        <time>2025-01-19T12:43:29Z</time>
      </trkpt>
      <trkpt lat="49.13545" lon="1.94046">
        <ele>67</ele>
        <time>2025-01-19T12:43:41Z</time>
      </trkpt>
      <trkpt lat="49.13553" lon="1.94037">
        <ele>67</ele>
        <time>2025-01-19T12:43:54Z</time>
      </trkpt>
      <trkpt lat="49.13579" lon="1.94028">
        <ele>65</ele>
        <time>2025-01-19T12:44:30Z</time>
      </trkpt>
      <trkpt lat="49.13594" lon="1.94018">
        <ele>65</ele>
        <time>2025-01-19T12:44:51Z</time>
      </trkpt>
      <trkpt lat="49.13604" lon="1.94005">
        <ele>64</ele>
        <time>2025-01-19T12:45:09Z</time>
      </trkpt>
      <trkpt lat="49.13653" lon="1.93859">
        <ele>71</ele>
        <time>2025-01-19T12:47:32Z</time>
      </trkpt>
      <trkpt lat="49.13673" lon="1.93722">
        <ele>75</ele>
        <time>2025-01-19T12:49:35Z</time>
      </trkpt>
      <trkpt lat="49.1368" lon="1.93608">
        <ele>82</ele>
        <time>2025-01-19T12:51:15Z</time>
      </trkpt>
      <trkpt lat="49.13691" lon="1.93568">
        <ele>83</ele>
        <time>2025-01-19T12:51:53Z</time>
      </trkpt>
      <trkpt lat="49.13687" lon="1.93521">
        <ele>85</ele>
        <time>2025-01-19T12:52:34Z</time>
      </trkpt>
      <trkpt lat="49.13677" lon="1.93506">
        <ele>86</ele>
        <time>2025-01-19T12:52:53Z</time>
      </trkpt>
      <trkpt lat="49.13632" lon="1.93476">
        <ele>88</ele>
        <time>2025-01-19T12:53:58Z</time>
      </trkpt>
      <trkpt lat="49.13601" lon="1.93443">
        <ele>88</ele>
        <time>2025-01-19T12:54:49Z</time>
      </trkpt>
      <trkpt lat="49.13545" lon="1.93354">
        <ele>90</ele>
        <time>2025-01-19T12:56:36Z</time>
      </trkpt>
      <trkpt lat="49.13492" lon="1.93308">
        <ele>90</ele>
        <time>2025-01-19T12:57:58Z</time>
      </trkpt>
      <trkpt lat="49.13464" lon="1.93303">
        <ele>90</ele>
        <time>2025-01-19T12:58:35Z</time>
      </trkpt>
      <trkpt lat="49.13428" lon="1.93308">
        <ele>89</ele>
        <time>2025-01-19T12:59:24Z</time>
      </trkpt>
      <trkpt lat="49.13301" lon="1.93341">
        <ele>88</ele>
        <time>2025-01-19T13:02:16Z</time>
      </trkpt>
      <trkpt lat="49.13288" lon="1.93339">
        <ele>88</ele>
        <time>2025-01-19T13:02:33Z</time>
      </trkpt>
      <trkpt lat="49.13252" lon="1.93308">
        <ele>88</ele>
        <time>2025-01-19T13:03:28Z</time>
      </trkpt>
      <trkpt lat="49.13246" lon="1.93308">
        <ele>87</ele>
        <time>2025-01-19T13:03:36Z</time>
      </trkpt>
      <trkpt lat="49.13236" lon="1.93317">
        <ele>87</ele>
        <time>2025-01-19T13:03:52Z</time>
      </trkpt>
      <trkpt lat="49.13228" lon="1.93332">
        <ele>86</ele>
        <time>2025-01-19T13:04:08Z</time>
      </trkpt>
      <trkpt lat="49.1321" lon="1.93381">
        <ele>85</ele>
        <time>2025-01-19T13:04:58Z</time>
      </trkpt>
      <trkpt lat="49.13195" lon="1.93408">
        <ele>84</ele>
        <time>2025-01-19T13:05:28Z</time>
      </trkpt>
      <trkpt lat="49.1317" lon="1.93488">
        <ele>83</ele>
        <time>2025-01-19T13:06:46Z</time>
      </trkpt>
      <trkpt lat="49.13128" lon="1.9358">
        <ele>81</ele>
        <time>2025-01-19T13:08:24Z</time>
      </trkpt>
      <trkpt lat="49.13099" lon="1.93662">
        <ele>82</ele>
        <time>2025-01-19T13:09:45Z</time>
      </trkpt>
      <trkpt lat="49.13042" lon="1.93747">
        <ele>83</ele>
        <time>2025-01-19T13:11:32Z</time>
      </trkpt>
      <trkpt lat="49.13033" lon="1.93743">
        <ele>82</ele>
        <time>2025-01-19T13:11:44Z</time>
      </trkpt>
      <trkpt lat="49.1297" lon="1.93751">
        <ele>79</ele>
        <time>2025-01-19T13:13:08Z</time>
      </trkpt>
      <trkpt lat="49.1293" lon="1.9375">
        <ele>77</ele>
        <time>2025-01-19T13:14:02Z</time>
      </trkpt>
      <trkpt lat="49.12856" lon="1.93769">
        <ele>70</ele>
        <time>2025-01-19T13:15:42Z</time>
      </trkpt>
      <trkpt lat="49.12781" lon="1.93769">
        <ele>66</ele>
        <time>2025-01-19T13:17:22Z</time>
      </trkpt>
      <trkpt lat="49.12759" lon="1.93774">
        <ele>65</ele>
        <time>2025-01-19T13:17:52Z</time>
      </trkpt>
      <trkpt lat="49.1271" lon="1.93823">
        <ele>63</ele>
        <time>2025-01-19T13:19:10Z</time>
      </trkpt>
      <trkpt lat="49.12693" lon="1.9385">
        <ele>63</ele>
        <time>2025-01-19T13:19:43Z</time>
      </trkpt>
      <trkpt lat="49.12666" lon="1.93869">
        <ele>62</ele>
        <time>2025-01-19T13:20:22Z</time>
      </trkpt>
      <trkpt lat="49.12653" lon="1.93872">
        <ele>61</ele>
        <time>2025-01-19T13:20:40Z</time>
      </trkpt>
      <trkpt lat="49.12618" lon="1.9386">
        <ele>58</ele>
        <time>2025-01-19T13:21:28Z</time>
      </trkpt>
      <trkpt lat="49.12605" lon="1.93846">
        <ele>57</ele>
        <time>2025-01-19T13:21:49Z</time>
      </trkpt>
      <trkpt lat="49.12586" lon="1.93838">
        <ele>55</ele>
        <time>2025-01-19T13:22:15Z</time>
      </trkpt>
      <trkpt lat="49.12552" lon="1.93815">
        <ele>56</ele>
        <time>2025-01-19T13:23:05Z</time>
      </trkpt>
      <trkpt lat="49.12526" lon="1.93787">
        <ele>58</ele>
        <time>2025-01-19T13:23:47Z</time>
      </trkpt>
      <trkpt lat="49.12511" lon="1.93753">
        <ele>59</ele>
        <time>2025-01-19T13:24:23Z</time>
      </trkpt>
      <trkpt lat="49.12498" lon="1.93741">
        <ele>60</ele>
        <time>2025-01-19T13:24:43Z</time>
      </trkpt>
      <trkpt lat="49.12489" lon="1.93748">
        <ele>60</ele>
        <time>2025-01-19T13:24:57Z</time>
      </trkpt>
      <trkpt lat="49.12477" lon="1.93772">
        <ele>61</ele>
        <time>2025-01-19T13:25:23Z</time>
      </trkpt>
      <trkpt lat="49.12455" lon="1.93798">
        <ele>62</ele>
        <time>2025-01-19T13:26:00Z</time>
      </trkpt>
      <trkpt lat="49.12446" lon="1.93804">
        <ele>62</ele>
        <time>2025-01-19T13:26:13Z</time>
      </trkpt>
      <trkpt lat="49.12413" lon="1.93812">
        <ele>65</ele>
        <time>2025-01-19T13:26:58Z</time>
      </trkpt>
      <trkpt lat="49.12375" lon="1.93836">
        <ele>66</ele>
        <time>2025-01-19T13:27:53Z</time>
      </trkpt>
      <trkpt lat="49.12369" lon="1.93848">
        <ele>67</ele>
        <time>2025-01-19T13:28:06Z</time>
      </trkpt>
      <trkpt lat="49.12367" lon="1.93882">
        <ele>67</ele>
        <time>2025-01-19T13:28:36Z</time>
      </trkpt>
      <trkpt lat="49.12355" lon="1.93921">
        <ele>67</ele>
        <time>2025-01-19T13:29:13Z</time>
      </trkpt>
      <trkpt lat="49.12348" lon="1.93973">
        <ele>66</ele>
        <time>2025-01-19T13:30:00Z</time>
      </trkpt>
      <trkpt lat="49.12336" lon="1.94">
        <ele>65</ele>
        <time>2025-01-19T13:30:28Z</time>
      </trkpt>
      <trkpt lat="49.12319" lon="1.94021">
        <ele>64</ele>
        <time>2025-01-19T13:30:57Z</time>
      </trkpt>
      <trkpt lat="49.12308" lon="1.94028">
        <ele>63</ele>
        <time>2025-01-19T13:31:13Z</time>
      </trkpt>
      <trkpt lat="49.12251" lon="1.94047">
        <ele>62</ele>
        <time>2025-01-19T13:32:31Z</time>
      </trkpt>
      <trkpt lat="49.12239" lon="1.9404">
        <ele>63</ele>
        <time>2025-01-19T13:32:48Z</time>
      </trkpt>
      <trkpt lat="49.12228" lon="1.94042">
        <ele>64</ele>
        <time>2025-01-19T13:33:03Z</time>
      </trkpt>
      <trkpt lat="49.12192" lon="1.94062">
        <ele>64</ele>
        <time>2025-01-19T13:33:54Z</time>
      </trkpt>
      <trkpt lat="49.12116" lon="1.94262">
        <ele>62</ele>
        <time>2025-01-19T13:37:16Z</time>
      </trkpt>
      <trkpt lat="49.12047" lon="1.94376">
        <ele>66</ele>
        <time>2025-01-19T13:39:32Z</time>
      </trkpt>
      <trkpt lat="49.1203" lon="1.94422">
        <ele>67</ele>
        <time>2025-01-19T13:40:18Z</time>
      </trkpt>
      <trkpt lat="49.12031" lon="1.94497">
        <ele>66</ele>
        <time>2025-01-19T13:41:24Z</time>
      </trkpt>
      <trkpt lat="49.12027" lon="1.94518">
        <ele>66</ele>
        <time>2025-01-19T13:41:43Z</time>
      </trkpt>
      <trkpt lat="49.12034" lon="1.94568">
        <ele>64</ele>
        <time>2025-01-19T13:42:27Z</time>
      </trkpt>
      <trkpt lat="49.1202" lon="1.94594">
        <ele>65</ele>
        <time>2025-01-19T13:42:57Z</time>
      </trkpt>
      <trkpt lat="49.11996" lon="1.94718">
        <ele>61</ele>
        <time>2025-01-19T13:44:50Z</time>
      </trkpt>
      <trkpt lat="49.11989" lon="1.94741">
        <ele>61</ele>
        <time>2025-01-19T13:45:12Z</time>
      </trkpt>
      <trkpt lat="49.11978" lon="1.94758">
        <ele>63</ele>
        <time>2025-01-19T13:45:33Z</time>
      </trkpt>
      <trkpt lat="49.11971" lon="1.94793">
        <ele>64</ele>
        <time>2025-01-19T13:46:05Z</time>
      </trkpt>
      <trkpt lat="49.11944" lon="1.94842">
        <ele>66</ele>
        <time>2025-01-19T13:47:01Z</time>
      </trkpt>
      <trkpt lat="49.11924" lon="1.94861">
        <ele>66</ele>
        <time>2025-01-19T13:47:32Z</time>
      </trkpt>
      <trkpt lat="49.11911" lon="1.94859">
        <ele>67</ele>
        <time>2025-01-19T13:47:49Z</time>
      </trkpt>
      <trkpt lat="49.11878" lon="1.94845">
        <ele>65</ele>
        <time>2025-01-19T13:48:35Z</time>
      </trkpt>
      <trkpt lat="49.11851" lon="1.94824">
        <ele>65</ele>
        <time>2025-01-19T13:49:16Z</time>
      </trkpt>
      <trkpt lat="49.11771" lon="1.94722">
        <ele>67</ele>
        <time>2025-01-19T13:51:35Z</time>
      </trkpt>
      <trkpt lat="49.11761" lon="1.94717">
        <ele>67</ele>
        <time>2025-01-19T13:51:49Z</time>
      </trkpt>
      <trkpt lat="49.11755" lon="1.94707">
        <ele>67</ele>
        <time>2025-01-19T13:52:00Z</time>
      </trkpt>
      <trkpt lat="49.11729" lon="1.94685">
        <ele>67</ele>
        <time>2025-01-19T13:52:40Z</time>
      </trkpt>
      <trkpt lat="49.11679" lon="1.94649">
        <ele>67</ele>
        <time>2025-01-19T13:53:54Z</time>
      </trkpt>
      <trkpt lat="49.11671" lon="1.94639">
        <ele>68</ele>
        <time>2025-01-19T13:54:08Z</time>
      </trkpt>
      <trkpt lat="49.11661" lon="1.94636">
        <ele>68</ele>
        <time>2025-01-19T13:54:21Z</time>
      </trkpt>
      <trkpt lat="49.1164" lon="1.94641">
        <ele>65</ele>
        <time>2025-01-19T13:54:50Z</time>
      </trkpt>
      <trkpt lat="49.11624" lon="1.94639">
        <ele>64</ele>
        <time>2025-01-19T13:55:11Z</time>
      </trkpt>
      <trkpt lat="49.11584" lon="1.94617">
        <ele>63</ele>
        <time>2025-01-19T13:56:08Z</time>
      </trkpt>
      <trkpt lat="49.11518" lon="1.94552">
        <ele>64</ele>
        <time>2025-01-19T13:57:53Z</time>
      </trkpt>
      <trkpt lat="49.1149" lon="1.94509">
        <ele>65</ele>
        <time>2025-01-19T13:58:46Z</time>
      </trkpt>
      <trkpt lat="49.11461" lon="1.94447">
        <ele>65</ele>
        <time>2025-01-19T13:59:52Z</time>
      </trkpt>
      <trkpt lat="49.11445" lon="1.94389">
        <ele>66</ele>
        <time>2025-01-19T14:00:47Z</time>
      </trkpt>
      <trkpt lat="49.11439" lon="1.9434">
        <ele>69</ele>
        <time>2025-01-19T14:01:31Z</time>
      </trkpt>
      <trkpt lat="49.11419" lon="1.94274">
        <ele>68</ele>
        <time>2025-01-19T14:02:34Z</time>
      </trkpt>
      <trkpt lat="49.11415" lon="1.94237">
        <ele>69</ele>
        <time>2025-01-19T14:03:07Z</time>
      </trkpt>
      <trkpt lat="49.11405" lon="1.94212">
        <ele>69</ele>
        <time>2025-01-19T14:03:33Z</time>
      </trkpt>
      <trkpt lat="49.11368" lon="1.9403">
        <ele>69</ele>
        <time>2025-01-19T14:06:19Z</time>
      </trkpt>
      <trkpt lat="49.11349" lon="1.94004">
        <ele>67</ele>
        <time>2025-01-19T14:06:53Z</time>
      </trkpt>
      <trkpt lat="49.11325" lon="1.9398">
        <ele>67</ele>
        <time>2025-01-19T14:07:31Z</time>
      </trkpt>
      <trkpt lat="49.11294" lon="1.93918">
        <ele>70</ele>
        <time>2025-01-19T14:08:39Z</time>
      </trkpt>
      <trkpt lat="49.11259" lon="1.93867">
        <ele>69</ele>
        <time>2025-01-19T14:09:44Z</time>
      </trkpt>
      <trkpt lat="49.11217" lon="1.93822">
        <ele>71</ele>
        <time>2025-01-19T14:10:52Z</time>
      </trkpt>
      <trkpt lat="49.11167" lon="1.93755">
        <ele>78</ele>
        <time>2025-01-19T14:12:21Z</time>
      </trkpt>
      <trkpt lat="49.11123" lon="1.93717">
        <ele>82</ele>
        <time>2025-01-19T14:13:29Z</time>
      </trkpt>
      <trkpt lat="49.11105" lon="1.93683">
        <ele>85</ele>
        <time>2025-01-19T14:14:07Z</time>
      </trkpt>
      <trkpt lat="49.11092" lon="1.9367">
        <ele>86</ele>
        <time>2025-01-19T14:14:28Z</time>
      </trkpt>
      <trkpt lat="49.11076" lon="1.93644">
        <ele>87</ele>
        <time>2025-01-19T14:14:59Z</time>
      </trkpt>
      <trkpt lat="49.1107" lon="1.93633">
        <ele>88</ele>
        <time>2025-01-19T14:15:11Z</time>
      </trkpt>
      <trkpt lat="49.11052" lon="1.93551">
        <ele>91</ele>
        <time>2025-01-19T14:16:27Z</time>
      </trkpt>
      <trkpt lat="49.11014" lon="1.93455">
        <ele>93</ele>
        <time>2025-01-19T14:18:05Z</time>
      </trkpt>
      <trkpt lat="49.11014" lon="1.93434">
        <ele>94</ele>
        <time>2025-01-19T14:18:23Z</time>
      </trkpt>
      <trkpt lat="49.11019" lon="1.9343">
        <ele>94</ele>
        <time>2025-01-19T14:18:31Z</time>
      </trkpt>
      <trkpt lat="49.11018" lon="1.9346">
        <ele>93</ele>
        <time>2025-01-19T14:18:57Z</time>
      </trkpt>
      <trkpt lat="49.11042" lon="1.93519">
        <ele>92</ele>
        <time>2025-01-19T14:19:58Z</time>
      </trkpt>
      <trkpt lat="49.11061" lon="1.93545">
        <ele>92</ele>
        <time>2025-01-19T14:20:32Z</time>
      </trkpt>
      <trkpt lat="49.11046" lon="1.93526">
        <ele>92</ele>
        <time>2025-01-19T14:20:58Z</time>
      </trkpt>
      <trkpt lat="49.11004" lon="1.93428">
        <ele>94</ele>
        <time>2025-01-19T14:22:40Z</time>
      </trkpt>
      <trkpt lat="49.10966" lon="1.93398">
        <ele>93</ele>
        <time>2025-01-19T14:23:37Z</time>
      </trkpt>
      <trkpt lat="49.10952" lon="1.9338">
        <ele>93</ele>
        <time>2025-01-19T14:24:02Z</time>
      </trkpt>
      <trkpt lat="49.1094" lon="1.93355">
        <ele>93</ele>
        <time>2025-01-19T14:24:29Z</time>
      </trkpt>
      <trkpt lat="49.10923" lon="1.93347">
        <ele>93</ele>
        <time>2025-01-19T14:24:52Z</time>
      </trkpt>
      <trkpt lat="49.10898" lon="1.93317">
        <ele>93</ele>
        <time>2025-01-19T14:25:35Z</time>
      </trkpt>
      <trkpt lat="49.10886" lon="1.93316">
        <ele>92</ele>
        <time>2025-01-19T14:25:51Z</time>
      </trkpt>
      <trkpt lat="49.10873" lon="1.93297">
        <ele>93</ele>
        <time>2025-01-19T14:26:15Z</time>
      </trkpt>
      <trkpt lat="49.10848" lon="1.93241">
        <ele>93</ele>
        <time>2025-01-19T14:27:14Z</time>
      </trkpt>
      <trkpt lat="49.10831" lon="1.93168">
        <ele>93</ele>
        <time>2025-01-19T14:28:22Z</time>
      </trkpt>
      <trkpt lat="49.10788" lon="1.93033">
        <ele>95</ele>
        <time>2025-01-19T14:30:33Z</time>
      </trkpt>
      <trkpt lat="49.10706" lon="1.92866">
        <ele>94</ele>
        <time>2025-01-19T14:33:35Z</time>
      </trkpt>
      <trkpt lat="49.10704" lon="1.92808">
        <ele>95</ele>
        <time>2025-01-19T14:34:26Z</time>
      </trkpt>
      <trkpt lat="49.10713" lon="1.92727">
        <ele>96</ele>
        <time>2025-01-19T14:35:38Z</time>
      </trkpt>
      <trkpt lat="49.10707" lon="1.92696">
        <ele>96</ele>
        <time>2025-01-19T14:36:06Z</time>
      </trkpt>
      <trkpt lat="49.10696" lon="1.92684">
        <ele>95</ele>
        <time>2025-01-19T14:36:24Z</time>
      </trkpt>
      <trkpt lat="49.10683" lon="1.92684">
        <ele>94</ele>
        <time>2025-01-19T14:36:41Z</time>
      </trkpt>
      <trkpt lat="49.10605" lon="1.92654">
        <ele>95</ele>
        <time>2025-01-19T14:38:29Z</time>
      </trkpt>
      <trkpt lat="49.10534" lon="1.92638">
        <ele>97</ele>
        <time>2025-01-19T14:40:04Z</time>
      </trkpt>
      <trkpt lat="49.10444" lon="1.92643">
        <ele>99</ele>
        <time>2025-01-19T14:42:05Z</time>
      </trkpt>
      <trkpt lat="49.1035" lon="1.92639">
        <ele>101</ele>
        <time>2025-01-19T14:44:10Z</time>
      </trkpt>
      <trkpt lat="49.10307" lon="1.9262">
        <ele>102</ele>
        <time>2025-01-19T14:45:10Z</time>
      </trkpt>
      <trkpt lat="49.10289" lon="1.92608">
        <ele>102</ele>
        <time>2025-01-19T14:45:36Z</time>
      </trkpt>
      <trkpt lat="49.10209" lon="1.92538">
        <ele>103</ele>
        <time>2025-01-19T14:47:39Z</time>
      </trkpt>
      <trkpt lat="49.10169" lon="1.92483">
        <ele>103</ele>
        <time>2025-01-19T14:48:51Z</time>
      </trkpt>
      <trkpt lat="49.10075" lon="1.92268">
        <ele>106</ele>
        <time>2025-01-19T14:52:37Z</time>
      </trkpt>
      <trkpt lat="49.10034" lon="1.92184">
        <ele>108</ele>
        <time>2025-01-19T14:54:08Z</time>
      </trkpt>
      <trkpt lat="49.09998" lon="1.92092">
        <ele>110</ele>
        <time>2025-01-19T14:55:42Z</time>
      </trkpt>
      <trkpt lat="49.0994" lon="1.91984">
        <ele>114</ele>
        <time>2025-01-19T14:57:44Z</time>
      </trkpt>
      <trkpt lat="49.09908" lon="1.91934">
        <ele>115</ele>
        <time>2025-01-19T14:58:45Z</time>
      </trkpt>
      <trkpt lat="49.099" lon="1.91932">
        <ele>116</ele>
        <time>2025-01-19T14:58:56Z</time>
      </trkpt>
      <trkpt lat="49.09889" lon="1.91949">
        <ele>116</ele>
        <time>2025-01-19T14:59:17Z</time>
      </trkpt>
      <trkpt lat="49.09879" lon="1.91999">
        <ele>115</ele>
        <time>2025-01-19T15:00:03Z</time>
      </trkpt>
      <trkpt lat="49.09854" lon="1.92065">
        <ele>115</ele>
        <time>2025-01-19T15:01:09Z</time>
      </trkpt>
      <trkpt lat="49.09839" lon="1.92093">
        <ele>116</ele>
        <time>2025-01-19T15:01:41Z</time>
      </trkpt>
      <trkpt lat="49.0983" lon="1.92073">
        <ele>116</ele>
        <time>2025-01-19T15:02:02Z</time>
      </trkpt>
      <trkpt lat="49.09829" lon="1.92101">
        <ele>116</ele>
        <time>2025-01-19T15:02:26Z</time>
      </trkpt>
      <trkpt lat="49.09823" lon="1.92112">
        <ele>115</ele>
        <time>2025-01-19T15:02:39Z</time>
      </trkpt>
      <trkpt lat="49.09815" lon="1.92114">
        <ele>115</ele>
        <time>2025-01-19T15:02:50Z</time>
      </trkpt>
      <trkpt lat="49.09783" lon="1.9208">
        <ele>117</ele>
        <time>2025-01-19T15:03:42Z</time>
      </trkpt>
      <trkpt lat="49.09777" lon="1.92084">
        <ele>117</ele>
        <time>2025-01-19T15:03:51Z</time>
      </trkpt>
      <trkpt lat="49.09754" lon="1.92121">
        <ele>116</ele>
        <time>2025-01-19T15:04:35Z</time>
      </trkpt>
      <trkpt lat="49.09701" lon="1.92214">
        <ele>115</ele>
        <time>2025-01-19T15:06:23Z</time>
      </trkpt>
      <trkpt lat="49.09645" lon="1.92331">
        <ele>117</ele>
        <time>2025-01-19T15:08:29Z</time>
      </trkpt>
      <trkpt lat="49.09611" lon="1.92381">
        <ele>118</ele>
        <time>2025-01-19T15:09:32Z</time>
      </trkpt>
      <trkpt lat="49.09597" lon="1.9242">
        <ele>118</ele>
        <time>2025-01-19T15:10:11Z</time>
      </trkpt>
      <trkpt lat="49.09543" lon="1.92513">
        <ele>119</ele>
        <time>2025-01-19T15:12:00Z</time>
      </trkpt>
      <trkpt lat="49.0948" lon="1.92636">
        <ele>118</ele>
        <time>2025-01-19T15:14:16Z</time>
      </trkpt>
      <trkpt lat="49.09393" lon="1.9279">
        <ele>114</ele>
        <time>2025-01-19T15:17:14Z</time>
      </trkpt>
      <trkpt lat="49.09376" lon="1.92798">
        <ele>114</ele>
        <time>2025-01-19T15:17:38Z</time>
      </trkpt>
      <trkpt lat="49.09362" lon="1.92794">
        <ele>114</ele>
        <time>2025-01-19T15:17:57Z</time>
      </trkpt>
      <trkpt lat="49.0934" lon="1.92778">
        <ele>113</ele>
        <time>2025-01-19T15:18:29Z</time>
      </trkpt>
      <trkpt lat="49.09255" lon="1.92703">
        <ele>114</ele>
        <time>2025-01-19T15:20:40Z</time>
      </trkpt>
      <trkpt lat="49.09227" lon="1.92684">
        <ele>114</ele>
        <time>2025-01-19T15:21:21Z</time>
      </trkpt>
      <trkpt lat="49.09119" lon="1.92592">
        <ele>116</ele>
        <time>2025-01-19T15:24:06Z</time>
      </trkpt>
      <trkpt lat="49.09077" lon="1.92565">
        <ele>118</ele>
        <time>2025-01-19T15:25:07Z</time>
      </trkpt>
      <trkpt lat="49.09058" lon="1.92543">
        <ele>118</ele>
        <time>2025-01-19T15:25:39Z</time>
      </trkpt>
      <trkpt lat="49.09042" lon="1.92533">
        <ele>119</ele>
        <time>2025-01-19T15:26:02Z</time>
      </trkpt>
      <trkpt lat="49.09012" lon="1.92504">
        <ele>120</ele>
        <time>2025-01-19T15:26:49Z</time>
      </trkpt>
      <trkpt lat="49.08904" lon="1.9242">
        <ele>124</ele>
        <time>2025-01-19T15:29:31Z</time>
      </trkpt>
      <trkpt lat="49.08876" lon="1.92406">
        <ele>125</ele>
        <time>2025-01-19T15:30:10Z</time>
      </trkpt>
      <trkpt lat="49.08843" lon="1.92383">
        <ele>127</ele>
        <time>2025-01-19T15:30:59Z</time>
      </trkpt>
      <trkpt lat="49.08805" lon="1.9237">
        <ele>128</ele>
        <time>2025-01-19T15:31:51Z</time>
      </trkpt>
      <trkpt lat="49.0879" lon="1.92351">
        <ele>129</ele>
        <time>2025-01-19T15:32:17Z</time>
      </trkpt>
      <trkpt lat="49.08784" lon="1.92327">
        <ele>129</ele>
        <time>2025-01-19T15:32:39Z</time>
      </trkpt>
      <trkpt lat="49.08775" lon="1.92312">
        <ele>130</ele>
        <time>2025-01-19T15:32:57Z</time>
      </trkpt>
      <trkpt lat="49.08759" lon="1.92308">
        <ele>130</ele>
        <time>2025-01-19T15:33:19Z</time>
      </trkpt>
      <trkpt lat="49.08756" lon="1.92303">
        <ele>131</ele>
        <time>2025-01-19T15:33:25Z</time>
      </trkpt>
      <trkpt lat="49.08757" lon="1.92309">
        <ele>130</ele>
        <time>2025-01-19T15:33:30Z</time>
      </trkpt>
    </trkseg>
  </trk>
</gpx>